sensor_id;sensor_type;location;lat;lon;timestamp;pressure;altitude;pressure_sealevel;temperature;humidity
48517;BME280;34310;51.904;4.256;2024-02-26T00:00:39;99951.72;;;15.49;61.01
48517;BME280;34310;51.904;4.256;2024-02-26T00:03:06;99955.97;;;15.47;61.03
48517;BME280;34310;51.904;4.256;2024-02-26T00:05:32;99951.59;;;15.46;61.22
48517;BME280;34310;51.904;4.256;2024-02-26T00:07:59;99953.25;;;15.44;61.25
48517;BME280;34310;51.904;4.256;2024-02-26T00:10:31;99955.81;;;15.43;61.24
48517;BME280;34310;51.904;4.256;2024-02-26T00:12:57;99949.72;;;15.42;61.15
48517;BME280;34310;51.904;4.256;2024-02-26T00:15:24;99954.81;;;15.39;61.41
48517;BME280;34310;51.904;4.256;2024-02-26T00:17:50;99963.44;;;15.38;61.35
48517;BME280;34310;51.904;4.256;2024-02-26T00:20:17;99962.56;;;15.38;61.30
48517;BME280;34310;51.904;4.256;2024-02-26T00:22:44;99958.19;;;15.37;61.33
48517;BME280;34310;51.904;4.256;2024-02-26T00:25:10;99958.13;;;15.35;61.57
48517;BME280;34310;51.904;4.256;2024-02-26T00:27:37;99961.50;;;15.33;61.40
48517;BME280;34310;51.904;4.256;2024-02-26T00:30:04;99962.31;;;15.32;61.49
48517;BME280;34310;51.904;4.256;2024-02-26T00:32:30;99963.06;;;15.29;61.34
48517;BME280;34310;51.904;4.256;2024-02-26T00:34:57;99956.94;;;15.27;61.43
48517;BME280;34310;51.904;4.256;2024-02-26T00:37:24;99959.41;;;15.24;61.50
48517;BME280;34310;51.904;4.256;2024-02-26T00:39:50;99958.59;;;15.25;61.65
48517;BME280;34310;51.904;4.256;2024-02-26T00:42:17;99962.84;;;15.23;61.35
48517;BME280;34310;51.904;4.256;2024-02-26T00:44:43;99960.19;;;15.22;61.51
48517;BME280;34310;51.904;4.256;2024-02-26T00:47:10;99961.84;;;15.19;61.55
48517;BME280;34310;51.904;4.256;2024-02-26T00:49:37;99963.50;;;15.17;61.58
48517;BME280;34310;51.904;4.256;2024-02-26T00:52:04;99965.94;;;15.13;61.47
48517;BME280;34310;51.904;4.256;2024-02-26T00:54:31;99957.19;;;15.11;61.61
48517;BME280;34310;51.904;4.256;2024-02-26T00:56:58;99965.88;;;15.11;61.99
48517;BME280;34310;51.904;4.256;2024-02-26T00:59:24;99960.72;;;15.13;61.68
48517;BME280;34310;51.904;4.256;2024-02-26T01:01:51;99959.25;;;15.19;61.40
48517;BME280;34310;51.904;4.256;2024-02-26T01:04:17;99967.69;;;15.36;61.12
48517;BME280;34310;51.904;4.256;2024-02-26T01:06:44;99964.94;;;15.56;60.70
48517;BME280;34310;51.904;4.256;2024-02-26T01:09:11;99961.38;;;15.76;60.14
48517;BME280;34310;51.904;4.256;2024-02-26T01:11:38;99957.63;;;15.92;59.62
48517;BME280;34310;51.904;4.256;2024-02-26T01:14:04;99960.66;;;16.04;59.11
48517;BME280;34310;51.904;4.256;2024-02-26T01:16:32;99962.72;;;16.14;58.92
48517;BME280;34310;51.904;4.256;2024-02-26T01:18:58;99954.25;;;16.20;58.60
48517;BME280;34310;51.904;4.256;2024-02-26T01:21:25;99959.66;;;16.26;58.56
48517;BME280;34310;51.904;4.256;2024-02-26T01:23:57;99957.22;;;16.30;58.37
48517;BME280;34310;51.904;4.256;2024-02-26T01:26:26;99959.03;;;16.33;58.10
48517;BME280;34310;51.904;4.256;2024-02-26T01:28:53;99955.59;;;16.34;58.12
48517;BME280;34310;51.904;4.256;2024-02-26T01:31:19;99949.56;;;16.35;57.91
48517;BME280;34310;51.904;4.256;2024-02-26T01:33:46;99959.13;;;16.36;58.03
48517;BME280;34310;51.904;4.256;2024-02-26T01:36:13;99965.22;;;16.36;57.95
48517;BME280;34310;51.904;4.256;2024-02-26T01:38:39;99966.94;;;16.36;57.84
48517;BME280;34310;51.904;4.256;2024-02-26T01:41:06;99973.88;;;16.35;57.92
48517;BME280;34310;51.904;4.256;2024-02-26T01:43:33;99981.69;;;16.35;58.01
48517;BME280;34310;51.904;4.256;2024-02-26T01:45:59;99984.25;;;16.34;57.85
48517;BME280;34310;51.904;4.256;2024-02-26T01:48:26;99982.44;;;16.31;58.13
48517;BME280;34310;51.904;4.256;2024-02-26T01:50:53;99978.94;;;16.31;57.91
48517;BME280;34310;51.904;4.256;2024-02-26T01:53:19;99994.56;;;16.31;58.17
48517;BME280;34310;51.904;4.256;2024-02-26T01:55:46;99997.91;;;16.27;58.21
48517;BME280;34310;51.904;4.256;2024-02-26T01:58:13;99989.16;;;16.25;58.18
48517;BME280;34310;51.904;4.256;2024-02-26T02:00:40;100001.25;;;16.23;58.28
48517;BME280;34310;51.904;4.256;2024-02-26T02:03:07;100002.03;;;16.20;58.30
48517;BME280;34310;51.904;4.256;2024-02-26T02:05:34;100004.50;;;16.17;58.28
48517;BME280;34310;51.904;4.256;2024-02-26T02:08:02;100007.94;;;16.16;58.29
48517;BME280;34310;51.904;4.256;2024-02-26T02:10:29;99999.22;;;16.16;58.46
48517;BME280;34310;51.904;4.256;2024-02-26T02:12:55;100005.22;;;16.13;58.61
48517;BME280;34310;51.904;4.256;2024-02-26T02:15:22;100005.16;;;16.11;58.63
48517;BME280;34310;51.904;4.256;2024-02-26T02:17:49;100009.38;;;16.08;58.65
48517;BME280;34310;51.904;4.256;2024-02-26T02:20:17;100009.34;;;16.06;58.61
48517;BME280;34310;51.904;4.256;2024-02-26T02:22:45;100023.19;;;16.05;58.79
48517;BME280;34310;51.904;4.256;2024-02-26T02:25:12;100026.63;;;16.04;58.93
48517;BME280;34310;51.904;4.256;2024-02-26T02:27:40;100025.75;;;16.04;58.81
48517;BME280;34310;51.904;4.256;2024-02-26T02:30:10;100020.47;;;16.02;58.89
48517;BME280;34310;51.904;4.256;2024-02-26T02:32:39;100035.09;;;15.99;58.73
48517;BME280;34310;51.904;4.256;2024-02-26T02:35:07;100040.25;;;15.97;58.91
48517;BME280;34310;51.904;4.256;2024-02-26T02:37:34;100041.03;;;15.95;59.10
48517;BME280;34310;51.904;4.256;2024-02-26T02:40:02;100040.09;;;15.93;58.95
48517;BME280;34310;51.904;4.256;2024-02-26T02:42:29;100033.06;;;15.90;59.18
48517;BME280;34310;51.904;4.256;2024-02-26T02:44:55;100038.19;;;15.89;59.15
48517;BME280;34310;51.904;4.256;2024-02-26T02:47:22;100038.91;;;15.85;59.15
48517;BME280;34310;51.904;4.256;2024-02-26T02:49:49;100046.72;;;15.85;59.29
48517;BME280;34310;51.904;4.256;2024-02-26T02:52:16;100041.34;;;15.80;59.41
48517;BME280;34310;51.904;4.256;2024-02-26T02:54:42;100042.19;;;15.79;59.32
48517;BME280;34310;51.904;4.256;2024-02-26T02:57:09;100045.59;;;15.78;59.43
48517;BME280;34310;51.904;4.256;2024-02-26T02:59:37;100044.63;;;15.74;59.45
48517;BME280;34310;51.904;4.256;2024-02-26T03:02:04;100047.16;;;15.73;59.34
48517;BME280;34310;51.904;4.256;2024-02-26T03:04:30;100055.78;;;15.72;59.47
48517;BME280;34310;51.904;4.256;2024-02-26T03:06:58;100057.47;;;15.70;59.75
48517;BME280;34310;51.904;4.256;2024-02-26T03:09:25;100064.31;;;15.68;59.77
48517;BME280;34310;51.904;4.256;2024-02-26T03:11:51;100063.38;;;15.66;59.64
48517;BME280;34310;51.904;4.256;2024-02-26T03:14:18;100058.13;;;15.64;59.65
48517;BME280;34310;51.904;4.256;2024-02-26T03:16:48;100060.59;;;15.61;59.82
48517;BME280;34310;51.904;4.256;2024-02-26T03:19:15;100066.56;;;15.59;59.67
48517;BME280;34310;51.904;4.256;2024-02-26T03:21:42;100057.78;;;15.57;59.65
48517;BME280;34310;51.904;4.256;2024-02-26T03:24:09;100067.28;;;15.56;59.70
48517;BME280;34310;51.904;4.256;2024-02-26T03:26:36;100065.47;;;15.54;59.65
48517;BME280;34310;51.904;4.256;2024-02-26T03:29:03;100069.72;;;15.52;59.69
48517;BME280;34310;51.904;4.256;2024-02-26T03:31:29;100070.44;;;15.47;59.93
48517;BME280;34310;51.904;4.256;2024-02-26T03:33:56;100067.84;;;15.47;60.00
48517;BME280;34310;51.904;4.256;2024-02-26T03:36:25;100072.09;;;15.45;59.75
48517;BME280;34310;51.904;4.256;2024-02-26T03:38:52;100081.56;;;15.43;59.93
48517;BME280;34310;51.904;4.256;2024-02-26T03:41:18;100074.56;;;15.42;60.23
48517;BME280;34310;51.904;4.256;2024-02-26T03:43:45;100073.56;;;15.39;59.83
48517;BME280;34310;51.904;4.256;2024-02-26T03:46:11;100080.50;;;15.38;60.07
48517;BME280;34310;51.904;4.256;2024-02-26T03:48:38;100084.75;;;15.36;59.90
48517;BME280;34310;51.904;4.256;2024-02-26T03:51:05;100081.19;;;15.34;60.23
48517;BME280;34310;51.904;4.256;2024-02-26T03:53:32;100081.94;;;15.32;59.83
48517;BME280;34310;51.904;4.256;2024-02-26T03:56:03;100085.38;;;15.31;59.82
48517;BME280;34310;51.904;4.256;2024-02-26T03:58:29;100088.78;;;15.30;59.97
48517;BME280;34310;51.904;4.256;2024-02-26T04:00:56;100086.91;;;15.26;60.00
48517;BME280;34310;51.904;4.256;2024-02-26T04:03:22;100088.56;;;15.24;60.05
48517;BME280;34310;51.904;4.256;2024-02-26T04:05:49;100086.78;;;15.23;60.30
48517;BME280;34310;51.904;4.256;2024-02-26T04:08:16;100091.09;;;15.22;60.47
48517;BME280;34310;51.904;4.256;2024-02-26T04:10:45;100090.97;;;15.19;60.32
48517;BME280;34310;51.904;4.256;2024-02-26T04:13:12;100101.31;;;15.17;60.46
48517;BME280;34310;51.904;4.256;2024-02-26T04:15:38;100103.91;;;15.17;60.43
48517;BME280;34310;51.904;4.256;2024-02-26T04:18:05;100103.78;;;15.14;60.46
48517;BME280;34310;51.904;4.256;2024-02-26T04:20:32;100106.47;;;15.16;60.29
48517;BME280;34310;51.904;4.256;2024-02-26T04:22:58;100116.22;;;15.22;60.25
48517;BME280;34310;51.904;4.256;2024-02-26T04:25:25;100107.22;;;15.34;59.84
48517;BME280;34310;51.904;4.256;2024-02-26T04:27:51;100107.97;;;15.54;59.51
48517;BME280;34310;51.904;4.256;2024-02-26T04:30:18;100100.03;;;15.72;58.79
48517;BME280;34310;51.904;4.256;2024-02-26T04:32:45;100106.84;;;15.91;58.35
48517;BME280;34310;51.904;4.256;2024-02-26T04:35:12;100109.94;;;16.04;58.05
48517;BME280;34310;51.904;4.256;2024-02-26T04:37:38;100105.94;;;16.14;57.85
48517;BME280;34310;51.904;4.256;2024-02-26T04:40:05;100107.97;;;16.21;57.41
48517;BME280;34310;51.904;4.256;2024-02-26T04:42:32;100102.09;;;16.27;57.43
48517;BME280;34310;51.904;4.256;2024-02-26T04:44:59;100115.28;;;16.31;57.23
48517;BME280;34310;51.904;4.256;2024-02-26T04:47:25;100111.06;;;16.35;57.08
48517;BME280;34310;51.904;4.256;2024-02-26T04:49:52;100115.44;;;16.36;57.00
48517;BME280;34310;51.904;4.256;2024-02-26T04:52:20;100127.63;;;16.37;56.81
48517;BME280;34310;51.904;4.256;2024-02-26T04:54:46;100129.41;;;16.38;56.87
48517;BME280;34310;51.904;4.256;2024-02-26T04:57:13;100133.72;;;16.37;56.96
48517;BME280;34310;51.904;4.256;2024-02-26T04:59:40;100130.25;;;16.37;56.87
48517;BME280;34310;51.904;4.256;2024-02-26T05:02:06;100140.59;;;16.35;56.80
48517;BME280;34310;51.904;4.256;2024-02-26T05:04:33;100138.88;;;16.36;56.70
48517;BME280;34310;51.904;4.256;2024-02-26T05:07:03;100136.16;;;16.33;56.83
48517;BME280;34310;51.904;4.256;2024-02-26T05:09:35;100140.56;;;16.34;57.00
48517;BME280;34310;51.904;4.256;2024-02-26T05:12:02;100140.44;;;16.31;56.84
48517;BME280;34310;51.904;4.256;2024-02-26T05:14:28;100149.09;;;16.30;56.61
48517;BME280;34310;51.904;4.256;2024-02-26T05:17:00;100142.88;;;16.26;57.00
48517;BME280;34310;51.904;4.256;2024-02-26T05:19:27;100140.22;;;16.25;56.72
48517;BME280;34310;51.904;4.256;2024-02-26T05:21:54;100136.69;;;16.23;56.71
48517;BME280;34310;51.904;4.256;2024-02-26T05:24:20;100145.31;;;16.22;56.93
48517;BME280;34310;51.904;4.256;2024-02-26T05:26:47;100147.00;;;16.20;56.67
48517;BME280;34310;51.904;4.256;2024-02-26T05:29:14;100152.09;;;16.18;56.94
48517;BME280;34310;51.904;4.256;2024-02-26T05:31:43;100144.13;;;16.14;56.96
48517;BME280;34310;51.904;4.256;2024-02-26T05:34:10;100153.59;;;16.11;56.97
48517;BME280;34310;51.904;4.256;2024-02-26T05:36:37;100164.03;;;16.11;57.34
48517;BME280;34310;51.904;4.256;2024-02-26T05:39:03;100158.75;;;16.10;57.36
48517;BME280;34310;51.904;4.256;2024-02-26T05:41:30;100163.03;;;16.08;57.41
48517;BME280;34310;51.904;4.256;2024-02-26T05:43:58;100162.03;;;16.04;57.42
48517;BME280;34310;51.904;4.256;2024-02-26T05:46:24;100174.09;;;16.02;57.25
48517;BME280;34310;51.904;4.256;2024-02-26T05:48:52;100171.38;;;15.99;57.47
48517;BME280;34310;51.904;4.256;2024-02-26T05:51:19;100180.91;;;15.99;57.55
48517;BME280;34310;51.904;4.256;2024-02-26T05:53:46;100181.69;;;15.96;57.73
48517;BME280;34310;51.904;4.256;2024-02-26T05:56:13;100189.44;;;15.95;57.87
48517;BME280;34310;51.904;4.256;2024-02-26T05:58:39;100198.97;;;15.94;58.31
48517;BME280;34310;51.904;4.256;2024-02-26T06:01:06;100201.56;;;15.94;57.74
48517;BME280;34310;51.904;4.256;2024-02-26T06:03:32;100213.19;;;15.82;51.98
48517;BME280;34310;51.904;4.256;2024-02-26T06:05:59;100201.50;;;15.51;47.94
48517;BME280;34310;51.904;4.256;2024-02-26T06:08:26;100214.78;;;15.36;48.93
48517;BME280;34310;51.904;4.256;2024-02-26T06:10:52;100218.28;;;15.37;50.94
48517;BME280;34310;51.904;4.256;2024-02-26T06:13:19;100214.84;;;15.38;53.33
48517;BME280;34310;51.904;4.256;2024-02-26T06:15:45;100221.00;;;15.40;54.47
48517;BME280;34310;51.904;4.256;2024-02-26T06:18:12;100227.16;;;15.42;55.12
48517;BME280;34310;51.904;4.256;2024-02-26T06:20:39;100224.56;;;15.42;55.99
48517;BME280;34310;51.904;4.256;2024-02-26T06:23:06;100236.75;;;15.43;56.21
48517;BME280;34310;51.904;4.256;2024-02-26T06:25:33;100247.16;;;15.43;56.66
48517;BME280;34310;51.904;4.256;2024-02-26T06:28:00;100250.56;;;15.42;57.02
48517;BME280;34310;51.904;4.256;2024-02-26T06:30:28;100247.09;;;15.41;57.24
48517;BME280;34310;51.904;4.256;2024-02-26T06:32:54;100250.44;;;15.39;57.46
48517;BME280;34310;51.904;4.256;2024-02-26T06:35:21;100257.31;;;15.37;57.42
48517;BME280;34310;51.904;4.256;2024-02-26T06:37:47;100270.31;;;15.37;57.81
48517;BME280;34310;51.904;4.256;2024-02-26T06:40:15;100275.44;;;15.35;57.97
48517;BME280;34310;51.904;4.256;2024-02-26T06:42:42;100275.38;;;15.34;58.05
48517;BME280;34310;51.904;4.256;2024-02-26T06:45:10;100279.59;;;15.32;58.22
48517;BME280;34310;51.904;4.256;2024-02-26T06:47:37;100275.28;;;15.32;58.30
48517;BME280;34310;51.904;4.256;2024-02-26T06:50:03;100274.28;;;15.29;58.57
48517;BME280;34310;51.904;4.256;2024-02-26T06:52:30;100288.09;;;15.28;58.67
48517;BME280;34310;51.904;4.256;2024-02-26T06:54:57;100288.84;;;15.25;58.67
48517;BME280;34310;51.904;4.256;2024-02-26T06:57:23;100288.72;;;15.22;59.06
48517;BME280;34310;51.904;4.256;2024-02-26T06:59:50;100300.03;;;15.23;59.02
48517;BME280;34310;51.904;4.256;2024-02-26T07:02:29;100301.66;;;15.21;59.35
48517;BME280;34310;51.904;4.256;2024-02-26T07:05:00;100299.00;;;15.19;59.01
48517;BME280;34310;51.904;4.256;2024-02-26T07:07:26;100309.34;;;15.17;59.37
48517;BME280;34310;51.904;4.256;2024-02-26T07:09:55;100311.06;;;15.17;59.38
48517;BME280;34310;51.904;4.256;2024-02-26T07:12:21;100311.81;;;15.14;59.47
48517;BME280;34310;51.904;4.256;2024-02-26T07:14:48;100319.53;;;15.13;59.42
48517;BME280;34310;51.904;4.256;2024-02-26T07:17:16;100326.53;;;15.14;59.46
48517;BME280;34310;51.904;4.256;2024-02-26T07:19:42;100338.91;;;15.19;59.08
48517;BME280;34310;51.904;4.256;2024-02-26T07:22:09;100336.63;;;15.27;58.66
48517;BME280;34310;51.904;4.256;2024-02-26T07:24:35;100333.94;;;15.45;58.51
48517;BME280;34310;51.904;4.256;2024-02-26T07:27:02;100341.00;;;15.67;58.09
48517;BME280;34310;51.904;4.256;2024-02-26T07:29:29;100338.31;;;15.86;57.52
48517;BME280;34310;51.904;4.256;2024-02-26T07:31:55;100340.75;;;16.02;57.44
48517;BME280;34310;51.904;4.256;2024-02-26T07:34:24;100347.31;;;16.15;56.71
48517;BME280;34310;51.904;4.256;2024-02-26T07:36:51;100345.94;;;16.23;56.60
48517;BME280;34310;51.904;4.256;2024-02-26T07:39:18;100347.06;;;16.30;56.42
48517;BME280;34310;51.904;4.256;2024-02-26T07:41:44;100358.50;;;16.33;56.33
48517;BME280;34310;51.904;4.256;2024-02-26T07:44:11;100355.19;;;16.37;56.30
48517;BME280;34310;51.904;4.256;2024-02-26T07:46:38;100352.63;;;16.39;56.18
48517;BME280;34310;51.904;4.256;2024-02-26T07:49:05;100357.97;;;16.42;55.91
48517;BME280;34310;51.904;4.256;2024-02-26T07:51:31;100370.94;;;16.40;55.97
48517;BME280;34310;51.904;4.256;2024-02-26T07:53:58;100362.22;;;16.40;55.86
48517;BME280;34310;51.904;4.256;2024-02-26T07:56:26;100370.03;;;16.40;55.94
48517;BME280;34310;51.904;4.256;2024-02-26T07:58:52;100379.56;;;16.39;55.90
48517;BME280;34310;51.904;4.256;2024-02-26T08:01:19;100377.75;;;16.37;56.12
48517;BME280;34310;51.904;4.256;2024-02-26T08:03:46;100383.84;;;16.37;56.07
48517;BME280;34310;51.904;4.256;2024-02-26T08:06:12;100389.88;;;16.36;55.80
48517;BME280;34310;51.904;4.256;2024-02-26T08:08:39;100389.81;;;16.35;55.98
48517;BME280;34310;51.904;4.256;2024-02-26T08:11:06;100400.19;;;16.33;55.82
48517;BME280;34310;51.904;4.256;2024-02-26T08:13:33;100400.13;;;16.32;56.07
48517;BME280;34310;51.904;4.256;2024-02-26T08:16:02;100401.72;;;16.28;55.95
48517;BME280;34310;51.904;4.256;2024-02-26T08:18:29;100403.38;;;16.26;56.02
48517;BME280;34310;51.904;4.256;2024-02-26T08:20:55;100407.63;;;16.24;56.11
48517;BME280;34310;51.904;4.256;2024-02-26T08:23:22;100423.19;;;16.23;56.23
48517;BME280;34310;51.904;4.256;2024-02-26T08:25:48;100416.97;;;16.19;56.18
48517;BME280;34310;51.904;4.256;2024-02-26T08:28:15;100427.31;;;16.18;56.12
48517;BME280;34310;51.904;4.256;2024-02-26T08:30:42;100435.03;;;16.16;56.16
48517;BME280;34310;51.904;4.256;2024-02-26T08:33:08;100427.94;;;16.12;56.29
48517;BME280;34310;51.904;4.256;2024-02-26T08:35:39;100433.97;;;16.11;56.45
48517;BME280;34310;51.904;4.256;2024-02-26T08:38:05;100444.25;;;16.08;56.49
48517;BME280;34310;51.904;4.256;2024-02-26T08:40:32;100445.09;;;16.07;56.70
48517;BME280;34310;51.904;4.256;2024-02-26T08:42:58;100453.66;;;16.04;56.62
48517;BME280;34310;51.904;4.256;2024-02-26T08:45:25;100448.34;;;16.01;56.51
48517;BME280;34310;51.904;4.256;2024-02-26T08:47:54;100459.50;;;15.99;56.68
48517;BME280;34310;51.904;4.256;2024-02-26T08:50:20;100458.50;;;15.95;56.65
48517;BME280;34310;51.904;4.256;2024-02-26T08:52:47;100461.84;;;15.93;56.83
48517;BME280;34310;51.904;4.256;2024-02-26T08:55:13;100465.22;;;15.90;56.95
48517;BME280;34310;51.904;4.256;2024-02-26T08:57:40;100459.03;;;15.88;57.09
48517;BME280;34310;51.904;4.256;2024-02-26T09:00:11;100475.41;;;15.86;56.81
48517;BME280;34310;51.904;4.256;2024-02-26T09:02:38;100482.31;;;15.85;56.83
48517;BME280;34310;51.904;4.256;2024-02-26T09:05:06;100487.34;;;15.80;56.94
48517;BME280;34310;51.904;4.256;2024-02-26T09:07:34;100489.94;;;15.80;56.84
48517;BME280;34310;51.904;4.256;2024-02-26T09:10:00;100487.19;;;15.77;56.94
48517;BME280;34310;51.904;4.256;2024-02-26T09:12:27;100492.34;;;15.76;57.04
48517;BME280;34310;51.904;4.256;2024-02-26T09:14:54;100502.69;;;15.74;57.04
48517;BME280;34310;51.904;4.256;2024-02-26T09:17:20;100504.34;;;15.72;57.15
48517;BME280;34310;51.904;4.256;2024-02-26T09:19:47;100504.19;;;15.69;57.13
48517;BME280;34310;51.904;4.256;2024-02-26T09:22:14;100507.56;;;15.67;57.22
48517;BME280;34310;51.904;4.256;2024-02-26T09:24:44;100511.81;;;15.65;57.38
48517;BME280;34310;51.904;4.256;2024-02-26T09:27:10;100511.66;;;15.62;57.36
48517;BME280;34310;51.904;4.256;2024-02-26T09:29:37;100521.19;;;15.61;57.49
48517;BME280;34310;51.904;4.256;2024-02-26T09:32:03;100526.28;;;15.60;57.48
48517;BME280;34310;51.904;4.256;2024-02-26T09:34:30;100524.34;;;15.56;57.65
48517;BME280;34310;51.904;4.256;2024-02-26T09:36:57;100532.16;;;15.56;57.37
48517;BME280;34310;51.904;4.256;2024-02-26T09:39:37;100530.28;;;15.53;57.21
48517;BME280;34310;51.904;4.256;2024-02-26T09:42:04;100545.84;;;15.52;57.56
48517;BME280;34310;51.904;4.256;2024-02-26T09:44:33;100541.31;;;15.47;57.55
48517;BME280;34310;51.904;4.256;2024-02-26T09:47:01;100545.56;;;15.45;57.63
48517;BME280;34310;51.904;4.256;2024-02-26T09:49:28;100553.38;;;15.45;57.46
48517;BME280;34310;51.904;4.256;2024-02-26T09:51:56;100557.63;;;15.43;57.55
48517;BME280;34310;51.904;4.256;2024-02-26T09:54:25;100565.34;;;15.42;57.54
48517;BME280;34310;51.904;4.256;2024-02-26T09:56:53;100570.47;;;15.40;57.87
48517;BME280;34310;51.904;4.256;2024-02-26T09:59:37;100576.44;;;15.38;57.92
48517;BME280;34310;51.904;4.256;2024-02-26T10:02:10;100574.59;;;15.35;57.87
48517;BME280;34310;51.904;4.256;2024-02-26T10:04:39;100586.69;;;15.35;57.95
48517;BME280;34310;51.904;4.256;2024-02-26T10:07:11;100581.31;;;15.32;57.93
48517;BME280;34310;51.904;4.256;2024-02-26T10:09:38;100596.03;;;15.31;58.06
48517;BME280;34310;51.904;4.256;2024-02-26T10:12:07;100595.06;;;15.29;58.04
48517;BME280;34310;51.904;4.256;2024-02-26T10:14:38;100598.41;;;15.27;58.11
48517;BME280;34310;51.904;4.256;2024-02-26T10:17:07;100596.63;;;15.26;58.00
48517;BME280;34310;51.904;4.256;2024-02-26T10:19:33;100601.78;;;15.24;58.08
48517;BME280;34310;51.904;4.256;2024-02-26T10:22:05;100612.09;;;15.23;57.93
48517;BME280;34310;51.904;4.256;2024-02-26T10:24:41;100612.91;;;15.22;58.09
48517;BME280;34310;51.904;4.256;2024-02-26T10:27:08;100612.84;;;15.20;58.02
48517;BME280;34310;51.904;4.256;2024-02-26T10:29:37;100612.78;;;15.18;58.35
48517;BME280;34310;51.904;4.256;2024-02-26T10:32:04;100614.41;;;15.16;58.36
48517;BME280;34310;51.904;4.256;2024-02-26T10:34:31;100620.44;;;15.15;58.39
48517;BME280;34310;51.904;4.256;2024-02-26T10:37:01;100624.66;;;15.13;58.20
48517;BME280;34310;51.904;4.256;2024-02-26T10:39:27;100638.47;;;15.12;58.44
48517;BME280;34310;51.904;4.256;2024-02-26T10:41:54;100637.59;;;15.12;58.26
48517;BME280;34310;51.904;4.256;2024-02-26T10:44:21;100636.56;;;15.08;58.23
48517;BME280;34310;51.904;4.256;2024-02-26T10:46:52;100648.75;;;15.09;58.32
48517;BME280;34310;51.904;4.256;2024-02-26T10:49:19;100642.66;;;15.09;58.33
48517;BME280;34310;51.904;4.256;2024-02-26T10:51:54;100649.78;;;15.13;58.42
48517;BME280;34310;51.904;4.256;2024-02-26T10:54:24;100657.13;;;15.22;58.09
48517;BME280;34310;51.904;4.256;2024-02-26T10:57:01;100663.38;;;15.43;57.76
48517;BME280;34310;51.904;4.256;2024-02-26T10:59:32;100668.78;;;15.64;57.36
48517;BME280;34310;51.904;4.256;2024-02-26T11:02:00;100659.22;;;15.82;56.97
48517;BME280;34310;51.904;4.256;2024-02-26T11:04:27;100674.75;;;15.98;56.35
48517;BME280;34310;51.904;4.256;2024-02-26T11:06:57;100673.50;;;16.09;55.92
48517;BME280;34310;51.904;4.256;2024-02-26T11:09:25;100679.94;;;16.18;55.76
48517;BME280;34310;51.904;4.256;2024-02-26T11:11:54;100683.69;;;16.23;55.90
48517;BME280;34310;51.904;4.256;2024-02-26T11:14:23;100693.47;;;16.28;55.32
48517;BME280;34310;51.904;4.256;2024-02-26T11:16:55;100689.31;;;16.32;55.26
48517;BME280;34310;51.904;4.256;2024-02-26T11:19:24;100697.25;;;16.35;55.09
48517;BME280;34310;51.904;4.256;2024-02-26T11:21:51;100693.81;;;16.36;55.01
48517;BME280;34310;51.904;4.256;2024-02-26T11:24:18;100702.53;;;16.36;54.81
48517;BME280;34310;51.904;4.256;2024-02-26T11:26:54;100700.81;;;16.37;55.12
48517;BME280;34310;51.904;4.256;2024-02-26T11:29:22;100701.63;;;16.36;54.93
48517;BME280;34310;51.904;4.256;2024-02-26T11:31:50;100705.97;;;16.35;54.78
48517;BME280;34310;51.904;4.256;2024-02-26T11:34:17;100707.59;;;16.33;55.31
48517;BME280;34310;51.904;4.256;2024-02-26T11:36:46;100711.94;;;16.33;55.07
48517;BME280;34310;51.904;4.256;2024-02-26T11:39:12;100714.53;;;16.33;55.09
48517;BME280;34310;51.904;4.256;2024-02-26T11:41:39;100716.25;;;16.32;55.03
48517;BME280;34310;51.904;4.256;2024-02-26T11:44:10;100701.38;;;16.30;55.13
48517;BME280;34310;51.904;4.256;2024-02-26T11:46:41;100715.22;;;16.29;55.05
48517;BME280;34310;51.904;4.256;2024-02-26T11:49:40;100719.41;;;16.25;55.25
48517;BME280;34310;51.904;4.256;2024-02-26T11:52:08;100718.50;;;16.25;55.18
48517;BME280;34310;51.904;4.256;2024-02-26T11:54:51;100727.00;;;16.21;55.53
48517;BME280;34310;51.904;4.256;2024-02-26T11:57:43;100717.41;;;16.20;55.38
48517;BME280;34310;51.904;4.256;2024-02-26T12:00:14;100725.06;;;16.17;55.56
48517;BME280;34310;51.904;4.256;2024-02-26T12:02:43;100736.38;;;16.17;55.34
48517;BME280;34310;51.904;4.256;2024-02-26T12:05:13;100737.94;;;16.14;55.77
48517;BME280;34310;51.904;4.256;2024-02-26T12:07:43;100722.16;;;16.10;55.54
48517;BME280;34310;51.904;4.256;2024-02-26T12:12:49;100735.88;;;16.06;55.87
48517;BME280;34310;51.904;4.256;2024-02-26T12:15:16;100747.94;;;16.04;55.76
48517;BME280;34310;51.904;4.256;2024-02-26T12:17:48;100748.69;;;16.02;55.78
48517;BME280;34310;51.904;4.256;2024-02-26T12:20:16;100753.81;;;16.00;55.80
48517;BME280;34310;51.904;4.256;2024-02-26T12:22:45;100750.25;;;15.98;55.85
48517;BME280;34310;51.904;4.256;2024-02-26T12:25:13;100753.53;;;15.94;55.98
48517;BME280;34310;51.904;4.256;2024-02-26T12:27:40;100769.16;;;15.94;55.91
48517;BME280;34310;51.904;4.256;2024-02-26T12:30:07;100768.19;;;15.92;55.98
48517;BME280;34310;51.904;4.256;2024-02-26T12:32:35;100766.31;;;15.90;56.33
48517;BME280;34310;51.904;4.256;2024-02-26T12:35:02;100773.16;;;15.88;56.28
48517;BME280;34310;51.904;4.256;2024-02-26T12:37:29;100764.31;;;15.84;56.34
48517;BME280;34310;51.904;4.256;2024-02-26T12:39:56;100769.44;;;15.83;56.32
48517;BME280;34310;51.904;4.256;2024-02-26T12:42:23;100777.19;;;15.81;56.59
48517;BME280;34310;51.904;4.256;2024-02-26T12:44:50;100771.00;;;15.79;56.60
48517;BME280;34310;51.904;4.256;2024-02-26T12:47:20;100783.13;;;15.78;56.59
48517;BME280;34310;51.904;4.256;2024-02-26T12:49:47;100790.88;;;15.77;56.44
48517;BME280;34310;51.904;4.256;2024-02-26T12:52:14;100785.59;;;15.75;56.56
48517;BME280;34310;51.904;4.256;2024-02-26T12:54:42;100788.84;;;15.71;56.42
48517;BME280;34310;51.904;4.256;2024-02-26T12:57:09;100794.88;;;15.70;56.60